Time;durP1;ratioP1;P1;durP2;ratioP2;P2;SDS_P1;SDS_P2;PMS_P1;PMS_P2;Temp;Humidity;BMP_temperature;BMP_pressure;BME280_temperature;BME280_humidity;BME280_pressure;Samples;Min_cycle;Max_cycle;Signal;HPM_P1;HPM_P2
2023/07/01 00:00:41;;;;;;;6.70;3.53;;;;;;;22.35;100.00;100710.78;21015366;28;20475;-75
2023/07/01 00:10:46;;;;;;;4.33;3.27;;;;;;;22.19;100.00;100705.03;20946666;28;20124;-75
2023/07/01 00:21:12;;;;;;;6.13;3.55;;;;;;;22.13;100.00;100708.81;20997626;28;20053;-75
2023/07/01 00:31:34;;;;;;;7.38;3.45;;;;;;;22.08;100.00;100707.19;20983202;28;20374;-75
2023/07/01 00:41:59;;;;;;;8.70;3.72;;;;;;;22.05;100.00;100694.75;20984584;28;20178;-75
2023/07/01 00:52:21;;;;;;;5.30;3.53;;;;;;;21.99;100.00;100689.53;20988412;28;20084;-74
2023/07/01 01:02:54;;;;;;;10.75;3.72;;;;;;;21.86;100.00;100696.22;21001611;28;20455;-76
2023/07/01 01:13:19;;;;;;;5.47;3.35;;;;;;;21.77;100.00;100680.41;21001636;28;20160;-75
2023/07/01 01:23:51;;;;;;;8.50;3.60;;;;;;;21.72;100.00;100680.56;20943945;28;20166;-75
2023/07/01 01:34:15;;;;;;;5.60;3.35;;;;;;;21.65;100.00;100676.28;20999343;28;20068;-76
2023/07/01 01:44:46;;;;;;;7.03;3.65;;;;;;;21.59;100.00;100673.81;20995170;28;20043;-75
2023/07/01 01:54:55;;;;;;;7.13;4.35;;;;;;;21.44;100.00;100677.84;21009568;28;20040;-75
2023/07/01 02:04:58;;;;;;;6.07;4.00;;;;;;;21.54;100.00;100669.47;20994882;28;20528;-75
2023/07/01 02:15:23;;;;;;;8.77;4.53;;;;;;;21.70;100.00;100684.22;20995061;28;20048;-74
2023/07/01 02:25:36;;;;;;;6.40;4.13;;;;;;;21.71;100.00;100691.34;20981731;28;20061;-75
2023/07/01 02:36:01;;;;;;;8.80;4.32;;;;;;;21.70;100.00;100700.31;20961424;28;20572;-75
2023/07/01 02:46:25;;;;;;;7.65;4.13;;;;;;;21.68;100.00;100702.16;20951369;28;20147;-74
2023/07/01 02:56:49;;;;;;;7.47;4.80;;;;;;;21.62;100.00;100700.56;20979360;28;20121;-75
2023/07/01 03:07:12;;;;;;;6.57;4.68;;;;;;;21.57;100.00;100702.50;20985683;28;20370;-74
2023/07/01 03:17:36;;;;;;;8.23;4.57;;;;;;;21.48;100.00;100709.03;21007895;28;20048;-75
2023/07/01 03:27:39;;;;;;;8.43;5.20;;;;;;;21.61;100.00;100717.59;20988897;28;20143;-75
2023/07/01 03:38:04;;;;;;;11.68;6.55;;;;;;;21.97;100.00;100726.38;21002933;28;20060;-75
2023/07/01 03:48:27;;;;;;;11.02;5.20;;;;;;;22.33;100.00;100726.97;20988529;28;20472;-75
2023/07/01 03:58:51;;;;;;;6.35;4.38;;;;;;;22.97;100.00;100728.34;20963366;28;20048;-75
2023/07/01 04:09:14;;;;;;;8.07;3.70;;;;;;;23.54;100.00;100724.47;20989866;28;20443;-76
2023/07/01 04:19:39;;;;;;;6.15;3.60;;;;;;;24.09;100.00;100722.31;20989465;28;20109;-75
2023/07/01 04:30:02;;;;;;;8.63;3.85;;;;;;;24.61;100.00;100721.88;21013411;28;20044;-76
2023/07/01 04:40:26;;;;;;;7.80;3.30;;;;;;;25.10;100.00;100718.88;20984363;28;20752;-76
2023/07/01 04:50:49;;;;;;;8.88;3.22;;;;;;;25.54;100.00;100727.66;20982520;28;20102;-76
2023/07/01 05:01:14;;;;;;;6.43;2.50;;;;;;;26.01;100.00;100723.59;20981013;28;20044;-76
2023/07/01 05:11:17;;;;;;;4.88;2.78;;;;;;;26.45;100.00;100728.69;20981914;28;20118;-76
2023/07/01 05:21:49;;;;;;;3.40;2.13;;;;;;;26.84;100.00;100720.34;20967517;28;20550;-76
2023/07/01 05:32:12;;;;;;;7.43;2.50;;;;;;;27.53;100.00;100721.16;20969393;28;20044;-76
2023/07/01 05:42:17;;;;;;;8.80;3.20;;;;;;;27.96;100.00;100714.16;20976376;28;20044;-76
2023/07/01 05:52:40;;;;;;;9.05;3.50;;;;;;;28.33;100.00;100718.38;20970697;28;20596;-77
2023/07/01 06:03:05;;;;;;;10.52;4.07;;;;;;;29.11;100.00;100714.56;20993270;28;20052;-77
2023/07/01 06:13:28;;;;;;;7.55;3.75;;;;;;;29.64;100.00;100705.78;20963887;28;20079;-76
2023/07/01 06:23:55;;;;;;;6.88;3.30;;;;;;;30.68;100.00;100712.50;20953446;28;21102;-76
2023/07/01 06:34:18;;;;;;;6.20;3.80;;;;;;;31.21;99.06;100712.38;20977003;28;20048;-76
2023/07/01 06:44:45;;;;;;;7.30;3.85;;;;;;;31.35;95.29;100713.25;20974878;28;20048;-75
2023/07/01 06:55:08;;;;;;;7.07;3.33;;;;;;;31.42;93.81;100715.44;20974541;28;20163;-75
2023/07/01 07:05:33;;;;;;;7.28;4.32;;;;;;;31.72;90.48;100717.81;20934517;28;20049;-75
2023/07/01 07:15:56;;;;;;;5.70;3.10;;;;;;;31.69;81.98;100709.88;20937088;28;20076;-76
2023/07/01 07:26:20;;;;;;;7.05;3.55;;;;;;;31.95;79.53;100718.88;20981700;28;20048;-75
2023/07/01 07:36:44;;;;;;;7.13;3.38;;;;;;;32.05;75.95;100730.84;20959088;28;20523;-77
2023/07/01 07:47:09;;;;;;;6.07;2.95;;;;;;;32.40;67.33;100736.44;20948785;28;20041;-76
2023/07/01 07:57:31;;;;;;;6.30;3.63;;;;;;;32.41;69.38;100744.53;20972055;28;20045;-78
2023/07/01 08:07:55;;;;;;;7.40;4.13;;;;;;;32.34;70.03;100748.72;20981630;28;20052;-77
2023/07/01 08:18:18;;;;;;;7.40;3.25;;;;;;;33.10;68.05;100756.50;20985349;28;20144;-77
2023/07/01 08:28:42;;;;;;;8.95;3.70;;;;;;;33.34;69.22;100769.31;20985786;28;20493;-77
2023/07/01 08:39:05;;;;;;;7.50;3.70;;;;;;;33.79;67.54;100771.13;20959781;28;20040;-78
2023/07/01 08:49:10;;;;;;;6.50;4.15;;;;;;;33.98;64.52;100762.28;20982434;28;20063;-78
2023/07/01 08:59:33;;;;;;;8.90;4.78;;;;;;;34.11;65.39;100779.44;20978366;28;20049;-78
2023/07/01 09:09:58;;;;;;;8.13;4.35;;;;;;;34.56;59.65;100773.88;20996629;28;20515;-78
2023/07/01 09:20:21;;;;;;;7.40;4.70;;;;;;;34.61;59.43;100767.00;20956306;28;20501;-79
2023/07/01 09:30:45;;;;;;;8.32;4.60;;;;;;;34.69;59.05;100769.97;20974692;28;20044;-78
2023/07/01 09:41:14;;;;;;;7.70;4.70;;;;;;;35.15;58.62;100769.66;20989586;28;20142;-78
2023/07/01 09:51:47;;;;;;;7.25;4.25;;;;;;;35.55;54.26;100768.94;20991125;28;20129;-78
2023/07/01 10:02:10;;;;;;;7.10;4.93;;;;;;;35.60;52.05;100757.53;20958096;28;20691;-79
2023/07/01 10:12:37;;;;;;;8.93;4.65;;;;;;;35.88;51.09;100754.06;20982155;28;20072;-76
2023/07/01 10:23:01;;;;;;;9.40;4.82;;;;;;;35.56;52.00;100757.81;20959770;28;20052;-78
2023/07/01 10:33:56;;;;;;;8.80;4.70;;;;;;;35.53;53.35;100736.09;20985660;28;20048;-79
2023/07/01 10:44:23;;;;;;;6.97;5.27;;;;;;;35.86;50.20;100734.97;20992267;28;20980;-77
2023/07/01 10:54:47;;;;;;;8.50;4.72;;;;;;;35.91;50.38;100735.41;20940848;28;20052;-78
2023/07/01 11:05:10;;;;;;;8.05;4.47;;;;;;;36.30;51.05;100733.66;20965698;28;20055;-77
2023/07/01 11:15:35;;;;;;;7.20;4.67;;;;;;;36.55;50.50;100723.13;20950076;28;20048;-77
2023/07/01 11:25:58;;;;;;;9.65;4.80;;;;;;;35.98;51.18;100716.47;20938383;28;20140;-79
2023/07/01 11:36:34;;;;;;;7.10;4.20;;;;;;;36.00;50.29;100714.47;20959177;28;20241;-78
2023/07/01 11:46:57;;;;;;;7.43;4.25;;;;;;;35.58;51.29;100711.81;20966657;28;20056;-78
2023/07/01 11:57:23;;;;;;;7.15;4.43;;;;;;;35.10;53.36;100708.81;20971101;28;20052;-78
2023/07/01 12:07:56;;;;;;;10.18;4.70;;;;;;;34.94;57.31;100696.53;20984980;28;20067;-77
2023/07/01 12:18:26;;;;;;;7.45;4.60;;;;;;;34.79;59.04;100685.88;20953013;28;20143;-78
2023/07/01 12:28:49;;;;;;;9.77;4.57;;;;;;;34.93;60.50;100676.44;20979773;28;20437;-79
2023/07/01 12:39:17;;;;;;;8.70;5.00;;;;;;;35.07;58.70;100687.09;20953663;28;20547;-78
2023/07/01 12:49:41;;;;;;;8.65;4.30;;;;;;;35.07;55.97;100672.50;20975806;28;20105;-77
2023/07/01 13:00:06;;;;;;;9.03;4.40;;;;;;;35.30;54.64;100670.50;20995453;28;20048;-78
2023/07/01 13:10:30;;;;;;;7.85;4.57;;;;;;;35.71;54.21;100672.28;20969274;28;20475;-77
2023/07/01 13:20:54;;;;;;;8.93;4.33;;;;;;;35.65;52.54;100664.53;20982229;28;20062;-78
2023/07/01 13:31:23;;;;;;;7.50;4.50;;;;;;;35.36;52.86;100650.72;20969697;28;20047;-78
2023/07/01 13:41:47;;;;;;;10.50;5.28;;;;;;;35.18;57.40;100653.22;20966108;28;20102;-78
2023/07/01 13:52:11;;;;;;;11.65;4.82;;;;;;;34.77;66.94;100640.41;20966944;28;20052;-77
2023/07/01 14:02:38;;;;;;;7.75;4.70;;;;;;;34.47;66.91;100640.25;20961843;28;20044;-79
2023/07/01 14:13:01;;;;;;;6.85;4.15;;;;;;;34.70;63.07;100620.81;20965860;28;20095;-77
2023/07/01 14:23:30;;;;;;;8.07;4.43;;;;;;;34.68;62.83;100625.56;20980448;28;20408;-78
2023/07/01 14:33:54;;;;;;;9.45;4.55;;;;;;;35.13;61.58;100622.53;20947255;28;20044;-79
2023/07/01 14:44:20;;;;;;;10.02;4.70;;;;;;;34.83;61.10;100614.28;20960063;28;20431;-79
2023/07/01 14:54:42;;;;;;;11.88;4.85;;;;;;;34.37;62.73;100616.41;20966897;28;20052;-78
2023/07/01 15:05:07;;;;;;;10.55;4.80;;;;;;;33.83;65.46;100616.44;20951712;28;20056;-77
2023/07/01 15:15:29;;;;;;;8.73;4.50;;;;;;;33.59;64.40;100629.41;20965560;28;20043;-78
2023/07/01 15:25:53;;;;;;;8.70;4.70;;;;;;;33.09;67.48;100631.63;20903479;28;1384426;-78
2023/07/01 15:35:57;;;;;;;9.10;5.15;;;;;;;32.40;71.77;100617.03;20987231;28;20113;-78
2023/07/01 15:46:21;;;;;;;8.38;4.90;;;;;;;31.71;77.07;100620.50;20974647;28;20139;-79
2023/07/01 15:56:44;;;;;;;9.48;5.45;;;;;;;31.31;79.10;100632.63;20951371;28;20875;-78
2023/07/01 16:07:28;;;;;;;10.15;5.25;;;;;;;30.89;84.66;100630.09;20945868;28;20393;-78
2023/07/01 16:17:52;;;;;;;10.35;5.18;;;;;;;30.61;85.23;100627.56;20948962;28;20560;-79
2023/07/01 16:28:31;;;;;;;9.63;5.63;;;;;;;30.42;88.92;100636.09;21003859;28;20048;-79
2023/07/01 16:38:59;;;;;;;12.90;6.90;;;;;;;30.04;88.62;100644.16;20971918;28;20052;-79
2023/07/01 16:49:23;;;;;;;11.07;6.35;;;;;;;29.88;86.87;100646.13;20966987;28;20095;-79
2023/07/01 16:59:47;;;;;;;10.43;6.55;;;;;;;29.73;86.70;100652.59;20951763;28;20044;-77
2023/07/01 17:20:42;;;;;;;13.35;6.60;;;;;;;29.22;90.40;100667.66;21192518;27;20935;-77
2023/07/01 17:31:05;;;;;;;11.65;7.13;;;;;;;28.86;92.93;100654.53;21221041;27;20050;-77
2023/07/01 17:41:29;;;;;;;10.60;6.82;;;;;;;28.63;94.61;100657.75;21199893;27;20407;-76
2023/07/01 17:51:52;;;;;;;9.73;6.50;;;;;;;28.40;95.52;100660.03;21217517;27;20104;-77
2023/07/01 18:02:16;;;;;;;11.90;7.03;;;;;;;28.10;99.48;100669.94;21203322;28;20104;-76
2023/07/01 18:12:40;;;;;;;13.27;6.75;;;;;;;27.83;100.00;100668.84;21205304;27;20046;-76
2023/07/01 18:23:05;;;;;;;11.57;7.80;;;;;;;27.66;100.00;100662.53;21264043;27;20073;-77
2023/07/01 18:33:27;;;;;;;11.80;7.88;;;;;;;27.50;100.00;100661.63;21228735;27;20047;-76
2023/07/01 18:43:37;;;;;;;15.20;7.97;;;;;;;27.24;100.00;100662.19;21181850;27;20099;-76
2023/07/01 18:54:00;;;;;;;14.13;7.40;;;;;;;27.16;100.00;100661.72;21200114;27;20055;-76
2023/07/01 19:04:27;;;;;;;12.43;8.07;;;;;;;26.91;100.00;100671.16;21229259;27;20755;-76
2023/07/01 19:14:50;;;;;;;12.40;7.20;;;;;;;26.77;100.00;100678.25;21195700;27;20051;-77
2023/07/01 19:25:15;;;;;;;11.77;8.20;;;;;;;26.65;100.00;100684.34;21195375;27;20180;-76
2023/07/01 19:35:37;;;;;;;54.70;41.58;;;;;;;26.43;100.00;100685.44;21175768;27;20058;-76
2023/07/01 19:45:54;;;;;;;16.23;10.85;;;;;;;26.27;100.00;100688.97;21184877;27;20040;-75
2023/07/01 19:56:16;;;;;;;13.45;8.93;;;;;;;26.19;100.00;100694.72;21199634;27;20039;-77
2023/07/01 20:06:40;;;;;;;12.48;8.23;;;;;;;25.99;100.00;100693.03;21165673;27;20451;-77
2023/07/01 20:17:04;;;;;;;10.00;7.38;;;;;;;25.85;100.00;100709.06;21179924;27;20560;-77
2023/07/01 20:27:29;;;;;;;12.52;7.95;;;;;;;25.25;100.00;100694.75;21206508;27;20058;-77
2023/07/01 20:37:52;;;;;;;10.68;7.30;;;;;;;25.37;100.00;100696.88;21208477;27;20079;-77
2023/07/01 20:48:16;;;;;;;14.05;8.88;;;;;;;25.40;100.00;100696.72;21205377;27;20047;-77
2023/07/01 20:58:19;;;;;;;13.57;9.77;;;;;;;25.31;100.00;100691.78;21203501;27;20067;-77
2023/07/01 21:08:43;;;;;;;12.73;8.48;;;;;;;25.16;100.00;100680.78;21200283;27;20445;-77
2023/07/01 21:19:06;;;;;;;12.38;8.73;;;;;;;24.98;100.00;100677.09;21212741;27;20055;-77
2023/07/01 21:29:30;;;;;;;12.68;7.82;;;;;;;24.91;100.00;100670.22;21195740;27;20050;-77
2023/07/01 21:39:52;;;;;;;11.75;7.80;;;;;;;24.80;100.00;100675.19;21189837;27;20111;-76
2023/07/01 21:50:48;;;;;;;16.73;9.30;;;;;;;24.66;100.00;100674.91;21198112;27;20047;-77
2023/07/01 22:01:15;;;;;;;14.63;9.45;;;;;;;24.49;100.00;100657.63;21196977;27;20494;-77
2023/07/01 22:11:40;;;;;;;14.18;8.57;;;;;;;24.28;100.00;100658.56;21215458;27;20498;-77
2023/07/01 22:22:03;;;;;;;13.25;8.20;;;;;;;23.90;100.00;100651.13;21234286;27;20057;-77
2023/07/01 22:32:28;;;;;;;12.10;9.50;;;;;;;24.08;100.00;100655.78;21232877;27;20134;-77
2023/07/01 22:42:51;;;;;;;11.63;9.25;;;;;;;23.96;100.00;100648.22;21224244;27;20046;-77
2023/07/01 22:53:16;;;;;;;13.55;9.68;;;;;;;23.86;100.00;100645.00;21199150;27;20039;-76
2023/07/01 23:03:39;;;;;;;12.95;9.27;;;;;;;23.74;100.00;100642.81;21210144;27;20086;-76
2023/07/01 23:14:03;;;;;;;14.23;9.50;;;;;;;23.49;100.00;100652.81;21215204;27;20054;-76
2023/07/01 23:24:27;;;;;;;14.85;9.23;;;;;;;23.42;100.00;100657.53;21189159;27;20047;-76
2023/07/01 23:34:52;;;;;;;12.35;9.32;;;;;;;23.36;100.00;100653.28;21216302;27;20043;-77
2023/07/01 23:45:15;;;;;;;13.80;10.02;;;;;;;22.86;100.00;100643.50;21186913;27;20047;-76
2023/07/01 23:55:39;;;;;;;12.82;9.88;;;;;;;23.11;100.00;100644.34;21213420;27;20042;-77
